Flight Track Log - Related Links

Times and Time Zones

All times are in EDT time to prevent confusion due to time zone crossing. See the EJA846 flight status page for this flight to view local times or setup timezone preferences in your user account.

Time Position Orientation Groundspeed Altitude Reporting Facility
EDT Latitude Longitude Course Direction KTS MPH feet Rate Location/Type
Tue 06:04:23 AM 30.0500 -95.5525 172° South 181 208 1,000  Level Houston Center
Tue 06:04:41 AM 30.0331 -95.5497 172° South 185 213 1,900 2,093 Climbing Houston Center
Tue 06:05:06 AM 30.0172 -95.5494 179° South 206 237 2,500 4,100 Climbing Houston Center
Tue 06:05:41 AM 29.9719 -95.5472 178° South 235 270 6,000 4,900 Climbing Houston Center
Tue 06:06:06 AM 29.9536 -95.5433 170° South 226 260 7,400 3,529 Climbing Houston Center
Tue 06:07:06 AM 29.9325 -95.4761 110° East 240 276 11,000 3,174 Climbing Houston Center
Tue 06:08:07 AM 29.9269 -95.3850 94° East 279 321 13,800 2,777 Climbing Houston Center
Tue 06:09:07 AM 29.9219 -95.2789 93° East 325 374 16,600 2,900 Climbing Houston Center
Tue 06:10:07 AM 29.9156 -95.1697 94° East 338 389 19,600 2,550 Climbing Houston Center
Tue 06:11:07 AM 29.9089 -95.0556 94° East 353 406 21,700 2,033 Climbing Houston Center
Tue 06:12:08 AM 29.9017 -94.9344 94° East 373 429 23,700 2,132 Climbing Houston Center
Tue 06:13:08 AM 29.8942 -94.8089 94° East 388 447 26,000 2,100 Climbing Houston Center
Tue 06:14:08 AM 29.8856 -94.6842 95° East 390 449 27,900 1,650 Climbing Houston Center
Tue 06:15:08 AM 29.8792 -94.5544 93° East 403 464 29,300 1,686 Climbing Houston Center
Tue 06:16:09 AM 29.9017 -94.4250 79° East 413 475 31,300 1,636 Climbing Houston Center
Tue 06:17:09 AM 29.9228 -94.2933 79° East 408 470 32,600 1,300 Climbing Houston Center
Tue 06:18:09 AM 29.9431 -94.1661 80° East 406 467 33,900 1,300 Climbing Houston Center
Tue 06:19:09 AM 29.9628 -94.0389 80° East 406 467 35,200 1,388 Climbing Houston Center
Tue 06:20:10 AM 29.9833 -93.9108 79° East 408 470 36,700 893 Climbing Houston Center
Tue 06:21:10 AM 30.0033 -93.7778 80° East 426 490 37,000 850 Climbing Houston Center
Tue 06:22:10 AM 30.0247 -93.6381 80° East 442 509 38,400 1,450 Climbing Houston Center
Tue 06:23:10 AM 30.0447 -93.5000 80° East 443 510 39,900 1,240 Climbing Houston Center
Tue 06:24:11 AM 30.0656 -93.3639 80° East 438 504 40,900 545 Climbing Houston Center
Tue 06:25:11 AM 30.0861 -93.2231 80° East 447 514 41,000 50 Climbing Houston Center
Tue 06:26:11 AM 30.1092 -93.0764 80° East 466 536 41,000  Level Houston Center
Tue 06:27:11 AM 30.1311 -92.9269 80° East 472 543 41,000  Level Houston Center
Tue 06:28:12 AM 30.1575 -92.7464 80° East 476 548 41,000  Level Houston Center
Tue 06:29:12 AM 30.1803 -92.5942 80° East 482 555 41,000  Level Houston Center
Tue 06:30:12 AM 30.2019 -92.4417 81° East 482 555 41,000  Level Houston Center
Tue 06:31:12 AM 30.2217 -92.3025 81° East 479 551 41,000  Level Houston Center
Tue 06:32:13 AM 30.2439 -92.1531 80° East 475 547 41,000  Level Houston Center
Tue 06:33:13 AM 30.2650 -92.0033 81° East 475 547 41,000  Level Houston Center
Tue 06:34:13 AM 30.2858 -91.8567 81° East 467 537 41,000  Level Houston Center
Tue 06:35:14 AM 30.3056 -91.7178 81° East 468 539 41,000  Level Houston Center
Tue 06:36:14 AM 30.3303 -91.5403 81° East 466 536 41,000  Level Houston Center
Tue 06:37:14 AM 30.3503 -91.3928 81° East 465 535 41,000  Level Houston Center
Tue 06:38:15 AM 30.3708 -91.2469 81° East 461 531 41,000  Level Houston Center
Tue 06:39:15 AM 30.3917 -91.1006 81° East 461 531 41,000  Level Houston Center
Tue 06:40:15 AM 30.4083 -90.9564 82° East 455 524 41,000  Level Houston Center
Tue 06:41:16 AM 30.4286 -90.8097 81° East 461 531 41,000  Level Houston Center
Tue 06:42:16 AM 30.4478 -90.6631 81° East 461 531 41,000  Level Houston Center
Tue 06:43:16 AM 30.4644 -90.5147 83° East 463 533 41,000  Level Houston Center
Tue 06:44:17 AM 30.4686 -90.3636 88° East 470 541 41,000  Level Houston Center
Tue 06:45:17 AM 30.4744 -90.2142 87° East 465 535 41,000  Level Houston Center
Tue 06:46:17 AM 30.4806 -90.0622 87° East 470 541 41,000  Level Houston Center
Tue 06:47:18 AM 30.4856 -89.9089 88° East 471 542 41,000  Level Houston Center
Tue 06:48:18 AM 30.4931 -89.7506 87° East 486 559 41,000  Level Houston Center
Tue 06:49:18 AM 30.4964 -89.5964 89° East 475 547 41,000  Level Houston Center
Tue 06:50:19 AM 30.4992 -89.4736 88° East 474 545 41,000  Level Houston Center
Tue 06:51:19 AM 30.5047 -89.3206 88° East 474 545 41,000  Level Houston Center
Tue 06:52:19 AM 30.5078 -89.1333 89° East 485 558 41,000  Level Houston Center
Tue 06:53:20 AM 30.5128 -88.9808 88° East 478 550 41,000  Level Houston Center
Tue 06:54:20 AM 30.5142 -88.8275 89° East 477 549 41,000  Level Houston Center
Tue 06:55:21 AM 30.5144 -88.6742 90° East 479 551 41,000  Level Houston Center
Tue 06:56:21 AM 30.4917 -88.5242 100° East 479 551 41,000  Level Houston Center
Tue 06:57:21 AM 30.4717 -88.3731 99° East 479 551 41,000  Level Houston Center
Tue 06:58:22 AM 30.4494 -88.2217 100° East 481 554 41,000  Level Houston Center
Tue 06:59:22 AM 30.4283 -88.0689 99° East 485 558 41,000  Level Houston Center
Tue 07:00:23 AM 30.4067 -87.9158 99° East 486 559 41,000  Level Houston Center
Tue 07:01:03 AM 30.3864 -87.8142 103° East 477 549 41,000  Level Jacksonville Center
Tue 07:02:03 AM 30.3503 -87.6656 106° East 477 549 41,000  Level Jacksonville Center
Tue 07:03:03 AM 30.3100 -87.5192 108° East 477 549 41,000  Level Jacksonville Center
Tue 07:04:03 AM 30.2733 -87.3731 106° East 477 549 41,000  Level Jacksonville Center
Tue 07:05:03 AM 30.2369 -87.2225 106° East 482 555 41,000  Level Jacksonville Center
Tue 07:06:03 AM 30.1961 -87.0619 106° East 482 555 41,000  Level Jacksonville Center
Tue 07:07:03 AM 30.1572 -86.9139 107° East 482 555 41,000  Level Jacksonville Center
Tue 07:08:03 AM 30.1200 -86.7681 106° East 482 555 41,000  Level Jacksonville Center
Tue 07:09:03 AM 30.0786 -86.6178 108° East 482 555 41,000  Level Jacksonville Center
Tue 07:10:03 AM 30.0367 -86.4722 108° East 482 555 41,000  Level Jacksonville Center
Tue 07:11:03 AM 29.9992 -86.3244 106° East 482 555 41,000  Level Jacksonville Center
Tue 07:12:03 AM 29.9592 -86.1769 107° East 487 560 41,000  Level Jacksonville Center
Tue 07:13:03 AM 29.9189 -86.0294 107° East 487 560 41,000  Level Jacksonville Center
Tue 07:14:03 AM 29.8767 -85.8819 108° East 487 560 41,000  Level Jacksonville Center
Tue 07:15:03 AM 29.8361 -85.7322 107° East 487 560 41,000  Level Jacksonville Center
Tue 07:16:03 AM 29.7936 -85.5825 108° East 487 560 41,000  Level Jacksonville Center
Tue 07:17:03 AM 29.7528 -85.4356 108° East 487 560 41,000  Level Jacksonville Center
Tue 07:18:03 AM 29.7139 -85.2886 107° East 487 560 41,000  Level Jacksonville Center
Tue 07:19:03 AM 29.6725 -85.1419 108° East 487 560 41,000  Level Jacksonville Center
Tue 07:20:03 AM 29.6311 -84.9953 108° East 487 560 41,000  Level Jacksonville Center
Tue 07:21:03 AM 29.5878 -84.8486 109° East 482 555 41,000  Level Jacksonville Center
Tue 07:22:03 AM 29.5481 -84.6997 107° East 487 560 41,000  Level Jacksonville Center
Tue 07:23:03 AM 29.5083 -84.5533 107° East 487 560 41,000  Level Jacksonville Center
Tue 07:24:03 AM 29.4703 -84.4217 108° East 487 560 41,000  Level Jacksonville Center
Tue 07:25:03 AM 29.4261 -84.2756 109° East 482 555 41,000  Level Jacksonville Center
Tue 07:26:03 AM 29.3817 -84.1272 109° East 482 555 41,000 -950 Level Jacksonville Center
Tue 07:27:03 AM 29.3411 -83.9789 107° East 482 555 39,100 -1,950 Descending Jacksonville Center
Tue 07:28:03 AM 29.2986 -83.8378 109° East 482 555 37,100 -1,850 Descending Jacksonville Center
Tue 07:29:03 AM 29.2578 -83.6947 108° East 477 549 35,400 -1,050 Descending Jacksonville Center
Tue 07:30:03 AM 29.2147 -83.5517 109° East 472 543 35,000 -200 Descending Jacksonville Center
Tue 07:31:03 AM 29.1717 -83.4064 109° East 472 543 35,000  Level Jacksonville Center
Tue 07:32:03 AM 29.1283 -83.2586 109° East 477 549 35,000  Level Jacksonville Center
Tue 07:33:03 AM 29.0847 -83.1111 109° East 483 556 35,000  Level Jacksonville Center
Tue 07:34:03 AM 29.0389 -82.9592 109° East 488 562 35,000  Level Jacksonville Center
Tue 07:35:03 AM 28.9950 -82.8119 109° East 488 562 35,000  Level Jacksonville Center
Tue 07:36:03 AM 28.9511 -82.6647 109° East 488 562 35,000 -1,100 Level Jacksonville Center
Tue 07:37:03 AM 28.9006 -82.4989 109° East 495 570 32,800 -2,100 Descending Jacksonville Center
Tue 07:38:03 AM 28.8564 -82.3522 109° East 495 570 30,800 -1,900 Descending Jacksonville Center
Tue 07:39:03 AM 28.8181 -82.2244 109° East 484 557 29,000 -2,000 Descending Jacksonville Center
Tue 07:40:03 AM 28.7756 -82.0847 109° East 472 543 26,800 -2,150 Descending Jacksonville Center
Tue 07:41:03 AM 28.7350 -81.9503 109° East 461 531 24,700 -2,050 Descending Jacksonville Center
Tue 07:42:03 AM 28.6944 -81.8228 110° East 442 509 22,700 -794 Descending Jacksonville Center
Tue 07:44:27 AM 28.5967 -81.5139 110° East 421 484 22,000 -206 Descending Miami Center
Tue 07:45:27 AM 28.5628 -81.3989 109° East 421 484 22,000  Level Miami Center
Tue 07:46:27 AM 28.4992 -81.2950 125° Southeast 410 472 22,000  Level Miami Center
Tue 07:47:27 AM 28.4078 -81.2158 143° Southeast 405 466 22,000 -550 Level Miami Center
Tue 07:48:27 AM 28.3181 -81.1417 144° Southeast 400 460 20,900 -1,850 Descending Miami Center
Tue 07:49:27 AM 28.2347 -81.0653 141° Southeast 394 453 18,300 -2,650 Descending Miami Center
Tue 07:50:27 AM 28.1514 -80.9892 141° Southeast 365 420 15,600 -2,550 Descending Miami Center
Tue 07:51:27 AM 28.0761 -80.9253 143° Southeast 350 403 13,200 -2,450 Descending Miami Center
Tue 07:52:27 AM 28.0050 -80.8617 142° Southeast 338 389 10,700 -2,350 Descending Miami Center
Tue 07:53:27 AM 27.9417 -80.8053 142° Southeast 311 358 8,500 -2,100 Descending Miami Center
Tue 07:54:27 AM 27.8786 -80.7514 143° Southeast 289 333 6,500 -1,950 Descending Miami Center
Tue 07:55:27 AM 27.8153 -80.6978 143° Southeast 289 333 4,600 -1,950 Descending Miami Center
Tue 07:56:27 AM 27.7661 -80.6561 143° Southeast 261 300 2,600 -1,250 Descending Miami Center
Tue 07:57:27 AM 27.7194 -80.6053 136° Southeast 222 255 2,100 -300 Descending Miami Center
Tue 07:58:27 AM 27.6981 -80.5461 112° Southeast 203 234 2,000 -450 Descending Miami Center
Tue 07:59:27 AM 27.6808 -80.4917 110° East 191 220 1,200 -750 Descending Miami Center
Tue 08:00:27 AM 27.6669 -80.4536 112° Southeast 159 183 500 -700 Descending Miami Center

Login

Don't have an account? Register now (free) for customized features, flight alerts, and more!